Time;durP1;ratioP1;P1;durP2;ratioP2;P2;SDS_P1;SDS_P2;PMS_P1;PMS_P2;Temp;Humidity;BMP_temperature;BMP_pressure;BME280_temperature;BME280_humidity;BME280_pressure;Samples;Min_cycle;Max_cycle;Signal;HPM_P1;HPM_P2
2023/07/26 00:00:09;;;;;;;2.78;1.50;;;;;;;19.44;51.80;98008.34;5067093;28;20045;-70
2023/07/26 00:02:36;;;;;;;2.60;1.75;;;;;;;19.47;52.00;98016.06;5067370;28;20057;-69
2023/07/26 00:05:02;;;;;;;2.92;1.83;;;;;;;19.38;51.78;98021.59;5067093;28;20041;-68
2023/07/26 00:07:29;;;;;;;2.78;1.60;;;;;;;19.49;51.86;98002.47;5067226;28;20041;-68
2023/07/26 00:09:56;;;;;;;2.50;1.30;;;;;;;19.39;52.02;97997.28;5066170;28;20060;-68
2023/07/26 00:12:23;;;;;;;2.85;1.50;;;;;;;19.29;52.20;97991.25;5066923;28;20192;-68
2023/07/26 00:14:51;;;;;;;3.60;1.60;;;;;;;19.13;52.29;97967.13;5066988;28;20296;-68
2023/07/26 00:17:17;;;;;;;7.13;2.63;;;;;;;19.23;52.40;97995.47;5066688;28;20065;-69
2023/07/26 00:19:44;;;;;;;2.58;1.50;;;;;;;19.28;52.18;97994.94;5067294;28;20064;-69
2023/07/26 00:22:11;;;;;;;3.53;1.80;;;;;;;19.24;52.14;97990.91;5066420;28;20041;-69
2023/07/26 00:24:38;;;;;;;2.22;1.40;;;;;;;19.28;52.43;97992.25;5066353;28;20057;-69
2023/07/26 00:27:05;;;;;;;2.25;1.55;;;;;;;19.30;52.27;97992.09;5066877;28;20056;-69
2023/07/26 00:29:32;;;;;;;3.42;1.92;;;;;;;19.15;52.09;98011.59;5066474;28;20045;-69
2023/07/26 00:32:00;;;;;;;2.00;1.33;;;;;;;19.16;52.44;98025.84;5066223;28;20308;-69
2023/07/26 00:34:27;;;;;;;2.78;1.58;;;;;;;19.27;52.33;98013.91;5066514;28;20209;-69
2023/07/26 00:36:54;;;;;;;3.17;1.80;;;;;;;19.36;52.11;98019.09;5048620;28;20094;-69
2023/07/26 00:39:20;;;;;;;2.70;1.70;;;;;;;19.20;52.22;98019.13;5066659;28;20130;-69
2023/07/26 00:41:47;;;;;;;3.05;1.98;;;;;;;19.04;52.24;97974.34;5066358;28;20052;-69
2023/07/26 00:44:14;;;;;;;2.42;1.65;;;;;;;19.26;52.40;97994.28;5066572;28;20044;-69
2023/07/26 00:46:41;;;;;;;6.28;1.77;;;;;;;19.27;52.39;98004.00;5066519;28;20052;-69
2023/07/26 00:49:09;;;;;;;2.40;1.58;;;;;;;19.28;52.20;97994.94;5066331;28;20135;-69
2023/07/26 00:51:37;;;;;;;2.70;1.80;;;;;;;19.19;52.35;97996.81;5066424;28;20037;-69
2023/07/26 00:54:05;;;;;;;2.80;1.70;;;;;;;19.18;52.63;98000.50;5065841;28;20053;-69
2023/07/26 00:56:31;;;;;;;4.28;1.90;;;;;;;19.11;52.76;97988.78;5066083;28;20051;-68
2023/07/26 00:58:59;;;;;;;3.22;1.55;;;;;;;19.07;53.00;97990.13;5065713;28;20051;-69
2023/07/26 01:01:26;;;;;;;2.90;1.70;;;;;;;19.07;53.27;97989.28;5065974;28;20063;-69
2023/07/26 01:03:52;;;;;;;2.70;1.63;;;;;;;19.02;53.34;97992.47;5066211;28;20083;-69
2023/07/26 01:06:30;;;;;;;2.97;1.60;;;;;;;18.84;53.30;97971.22;5066193;28;20091;-69
2023/07/26 01:09:03;;;;;;;2.47;1.60;;;;;;;18.85;53.34;97969.38;5065624;28;20040;-69
2023/07/26 01:11:38;;;;;;;2.77;1.70;;;;;;;19.06;53.38;98014.47;5066087;28;20200;-69
2023/07/26 01:14:16;;;;;;;2.20;1.40;;;;;;;19.05;53.62;98032.41;5065735;28;20094;-69
2023/07/26 01:16:44;;;;;;;3.75;1.95;;;;;;;19.01;53.52;98020.34;5065614;28;20208;-69
2023/07/26 01:19:11;;;;;;;3.90;2.28;;;;;;;18.91;53.75;97985.63;5065911;28;20059;-69
2023/07/26 01:21:39;;;;;;;2.30;1.52;;;;;;;19.02;53.75;98023.88;5065604;28;20047;-68
2023/07/26 01:24:06;;;;;;;3.05;1.65;;;;;;;18.99;53.81;98034.94;5065232;28;20061;-70
2023/07/26 01:26:33;;;;;;;3.95;2.00;;;;;;;18.79;54.10;98023.72;5065427;28;20048;-69
2023/07/26 01:29:00;;;;;;;3.03;1.83;;;;;;;18.86;54.35;98049.72;5065864;28;20060;-69
2023/07/26 01:31:27;;;;;;;3.03;1.73;;;;;;;18.90;54.16;98051.06;5047821;28;20296;-69
2023/07/26 01:33:54;;;;;;;2.60;1.65;;;;;;;18.84;54.41;98048.22;5065262;28;20063;-68
2023/07/26 01:36:23;;;;;;;2.90;1.70;;;;;;;18.21;54.57;97939.69;5065216;28;20044;-70
2023/07/26 01:38:52;;;;;;;2.47;1.52;;;;;;;18.89;54.41;98051.22;5065418;28;20041;-71
2023/07/26 01:41:19;;;;;;;3.40;1.70;;;;;;;18.81;54.74;98048.53;5065275;28;20053;-70
2023/07/26 01:43:46;;;;;;;2.83;1.60;;;;;;;18.76;54.82;98049.06;5065566;28;20067;-70
2023/07/26 01:46:14;;;;;;;2.75;1.80;;;;;;;18.69;54.95;98056.09;5065767;28;20162;-70
2023/07/26 01:48:41;;;;;;;2.20;1.40;;;;;;;18.59;55.00;98071.50;5065516;28;20309;-70
2023/07/26 01:51:07;;;;;;;3.05;1.80;;;;;;;18.46;55.53;98061.25;5065444;28;20045;-70
2023/07/26 01:53:34;;;;;;;2.92;1.60;;;;;;;18.58;55.78;98069.84;5065374;28;20099;-69
2023/07/26 01:56:02;;;;;;;3.80;1.83;;;;;;;17.90;55.52;97981.53;5047644;28;20041;-70
2023/07/26 01:58:29;;;;;;;4.65;2.10;;;;;;;18.52;55.59;98075.88;5065284;28;20052;-70
2023/07/26 02:00:56;;;;;;;2.60;1.70;;;;;;;18.33;55.31;98042.09;5065001;28;20041;-72
2023/07/26 02:03:23;;;;;;;3.88;1.95;;;;;;;18.33;55.54;98062.72;5065014;28;20318;-69
2023/07/26 02:05:50;;;;;;;2.78;1.80;;;;;;;18.45;55.46;98070.28;5047531;28;20044;-69
2023/07/26 02:08:17;;;;;;;2.55;1.75;;;;;;;18.47;55.44;98073.66;5065294;28;20083;-70
2023/07/26 02:10:44;;;;;;;3.40;2.10;;;;;;;18.39;55.88;98078.16;5065491;28;20289;-70
2023/07/26 02:13:12;;;;;;;2.90;1.83;;;;;;;18.34;55.54;98081.34;5065199;28;20277;-69
2023/07/26 02:15:39;;;;;;;2.60;1.67;;;;;;;18.41;55.31;98082.34;5065522;28;20041;-70
2023/07/26 02:18:06;;;;;;;2.55;1.73;;;;;;;18.16;55.58;98061.84;5047950;28;20044;-70
2023/07/26 02:20:33;;;;;;;5.72;1.50;;;;;;;18.28;55.93;98106.97;5048326;28;20323;-70
2023/07/26 02:23:00;;;;;;;3.55;1.70;;;;;;;18.25;55.89;98109.13;5047265;28;20072;-70
2023/07/26 02:25:27;;;;;;;4.47;1.90;;;;;;;18.21;55.88;98083.66;5065362;28;20052;-70
2023/07/26 02:27:53;;;;;;;6.00;2.17;;;;;;;18.33;55.97;98116.38;5065257;28;20089;-70
2023/07/26 02:30:21;;;;;;;4.55;1.92;;;;;;;18.41;55.73;98114.53;5064852;28;20083;-70
2023/07/26 02:32:48;;;;;;;2.88;1.75;;;;;;;18.29;55.74;98107.81;5066503;28;20049;-70
2023/07/26 02:35:15;;;;;;;2.83;1.88;;;;;;;18.39;55.86;98126.44;5069053;28;20041;-70
2023/07/26 02:37:42;;;;;;;3.03;1.52;;;;;;;18.35;56.00;98127.78;5068966;28;20044;-70
2023/07/26 02:40:10;;;;;;;2.60;1.50;;;;;;;18.32;56.35;98131.63;5068451;28;20064;-71
2023/07/26 02:42:37;;;;;;;2.80;1.63;;;;;;;18.31;56.46;98127.25;5068908;28;20064;-71
2023/07/26 02:45:05;;;;;;;2.90;1.70;;;;;;;18.13;56.92;98095.19;5068428;28;20044;-71
2023/07/26 02:47:33;;;;;;;3.80;1.95;;;;;;;18.23;57.06;98111.13;5050673;28;20128;-72
2023/07/26 02:50:03;;;;;;;2.70;1.83;;;;;;;18.31;57.16;98132.63;5051076;28;20048;-71
2023/07/26 02:52:30;;;;;;;2.95;1.67;;;;;;;18.29;57.36;98137.31;5051205;28;20036;-72
2023/07/26 02:54:57;;;;;;;2.80;1.70;;;;;;;18.01;57.49;98101.00;5068579;28;20071;-71
2023/07/26 02:57:24;;;;;;;2.80;1.80;;;;;;;18.25;57.97;98134.13;5068275;28;20108;-71
2023/07/26 02:59:51;;;;;;;2.53;1.60;;;;;;;18.14;57.88;98093.34;5050690;28;20315;-70
2023/07/26 03:02:17;;;;;;;2.90;1.75;;;;;;;18.11;58.55;98107.06;5050609;28;20066;-70
2023/07/26 03:04:45;;;;;;;4.43;2.20;;;;;;;18.17;58.90;98133.25;5050432;28;20355;-70
2023/07/26 03:07:12;;;;;;;3.38;2.17;;;;;;;18.07;58.80;98133.38;5067888;28;20091;-70
2023/07/26 03:09:39;;;;;;;3.15;2.20;;;;;;;18.04;58.82;98132.84;5050708;28;20060;-70
2023/07/26 03:12:06;;;;;;;3.50;2.05;;;;;;;17.91;58.81;98106.50;5068089;28;20045;-70
2023/07/26 03:14:34;;;;;;;4.78;2.20;;;;;;;18.00;59.22;98143.06;5050448;28;20037;-70
2023/07/26 03:17:01;;;;;;;3.17;2.10;;;;;;;18.02;59.10;98130.34;5050292;28;20365;-71
2023/07/26 03:19:27;;;;;;;2.90;2.10;;;;;;;17.24;58.89;98001.00;5050089;28;20033;-69
2023/07/26 03:21:55;;;;;;;4.32;2.20;;;;;;;18.07;58.51;98137.91;5067437;28;20037;-70
2023/07/26 03:24:23;;;;;;;3.60;2.17;;;;;;;17.90;58.70;98104.81;5067454;28;20105;-69
2023/07/26 03:26:49;;;;;;;4.28;2.25;;;;;;;17.90;58.95;98134.31;5067463;28;20119;-69
2023/07/26 03:29:16;;;;;;;3.10;2.00;;;;;;;17.91;59.21;98141.34;5067751;28;20091;-70
2023/07/26 03:31:43;;;;;;;2.80;2.03;;;;;;;16.77;59.10;97981.78;5050076;28;20047;-70
2023/07/26 03:34:09;;;;;;;2.80;1.90;;;;;;;17.75;59.44;98149.28;5066998;28;20087;-70
2023/07/26 03:36:36;;;;;;;2.63;1.80;;;;;;;17.48;59.57;98092.19;5067718;28;20044;-71
2023/07/26 03:39:04;;;;;;;2.75;1.70;;;;;;;16.66;59.89;97967.66;5067585;28;20094;-70
2023/07/26 03:41:31;;;;;;;3.53;1.90;;;;;;;17.65;59.93;98140.53;5050351;28;20289;-71
2023/07/26 03:43:58;;;;;;;3.13;2.25;;;;;;;17.67;60.05;98135.84;5048605;28;20091;-70
2023/07/26 03:46:24;;;;;;;2.65;1.90;;;;;;;17.69;60.29;98136.53;5067331;28;20040;-69
2023/07/26 03:48:51;;;;;;;3.40;2.20;;;;;;;17.67;60.71;98134.00;5049595;28;20041;-70
2023/07/26 03:51:18;;;;;;;3.30;1.88;;;;;;;17.65;61.35;98129.81;5067057;28;20247;-70
2023/07/26 03:53:45;;;;;;;3.78;1.90;;;;;;;17.57;61.76;98141.28;5067524;28;20057;-69
2023/07/26 03:56:13;;;;;;;2.90;2.10;;;;;;;17.43;62.03;98140.03;5067372;28;20091;-70
2023/07/26 03:58:40;;;;;;;3.00;1.92;;;;;;;17.38;62.67;98150.38;5033649;28;20068;-69
2023/07/26 04:01:06;;;;;;;2.65;1.60;;;;;;;17.43;62.43;98147.22;5067196;28;20083;-69
2023/07/26 04:03:33;;;;;;;3.50;2.28;;;;;;;17.33;62.61;98133.94;5050544;28;20045;-70
2023/07/26 04:06:00;;;;;;;2.63;1.83;;;;;;;17.41;62.66;98160.78;5067369;28;20040;-70
2023/07/26 04:08:26;;;;;;;3.70;1.98;;;;;;;17.27;63.36;98161.34;5049402;28;20305;-69
2023/07/26 04:10:53;;;;;;;2.55;1.77;;;;;;;17.17;64.25;98157.88;5067115;28;20052;-69
2023/07/26 04:13:22;;;;;;;3.42;1.80;;;;;;;17.15;64.55;98171.41;5049888;28;20041;-69
2023/07/26 04:15:48;;;;;;;3.00;1.90;;;;;;;17.30;64.77;98172.56;5066560;28;20064;-69
2023/07/26 04:18:15;;;;;;;2.65;1.88;;;;;;;17.28;64.74;98184.44;5066521;28;20037;-69
2023/07/26 04:20:42;;;;;;;3.60;2.25;;;;;;;17.22;65.33;98179.69;5066823;28;20071;-70
2023/07/26 04:23:08;;;;;;;3.40;1.83;;;;;;;16.87;65.95;98143.91;5066350;28;20336;-70
2023/07/26 04:25:35;;;;;;;2.83;1.90;;;;;;;17.04;65.68;98170.81;5066548;28;20033;-69
2023/07/26 04:28:02;;;;;;;2.88;1.85;;;;;;;17.14;65.91;98169.72;5066677;28;20045;-70
2023/07/26 04:30:30;;;;;;;2.45;1.63;;;;;;;17.18;65.39;98162.22;5048946;28;20045;-70
2023/07/26 04:32:57;;;;;;;4.72;2.25;;;;;;;16.99;66.26;98142.66;5049201;28;20041;-69
2023/07/26 04:35:23;;;;;;;4.38;2.17;;;;;;;17.09;66.60;98177.38;5049559;28;20045;-70
2023/07/26 04:37:50;;;;;;;3.22;2.13;;;;;;;17.08;66.29;98169.50;5066308;28;20293;-70
2023/07/26 04:40:17;;;;;;;4.28;2.97;;;;;;;17.05;67.32;98169.81;5066868;28;20239;-70
2023/07/26 04:42:44;;;;;;;4.03;2.30;;;;;;;17.08;67.76;98173.03;5066255;28;20049;-70
2023/07/26 04:45:11;;;;;;;3.55;2.40;;;;;;;17.09;66.76;98161.31;5065977;28;20209;-70
2023/07/26 04:47:39;;;;;;;3.13;1.63;;;;;;;17.00;67.03;98165.75;5066221;28;20045;-70
2023/07/26 04:50:06;;;;;;;3.53;2.20;;;;;;;16.87;67.29;98151.94;5066115;28;20041;-70
2023/07/26 04:52:37;;;;;;;4.43;2.08;;;;;;;17.10;67.10;98170.19;5066450;28;20099;-70
2023/07/26 04:55:05;;;;;;;2.92;1.98;;;;;;;17.07;67.46;98171.34;5065417;28;20053;-70
2023/07/26 04:57:31;;;;;;;3.53;1.75;;;;;;;17.02;67.82;98175.47;5066533;28;20063;-70
2023/07/26 04:59:58;;;;;;;3.92;1.90;;;;;;;16.98;67.17;98165.09;5065899;28;20045;-70
2023/07/26 05:02:25;;;;;;;4.15;1.77;;;;;;;17.03;68.28;98164.63;5066182;28;20040;-70
2023/07/26 05:04:53;;;;;;;2.83;2.03;;;;;;;16.93;67.66;98161.19;5065907;28;20044;-70
2023/07/26 05:07:20;;;;;;;3.85;2.53;;;;;;;16.92;68.70;98168.38;5048383;28;20063;-70
2023/07/26 05:09:47;;;;;;;2.97;2.10;;;;;;;17.06;66.78;98171.50;5065505;28;20041;-70
2023/07/26 05:12:13;;;;;;;2.50;1.77;;;;;;;17.05;67.27;98167.97;5065610;28;20212;-70
2023/07/26 05:14:43;;;;;;;2.33;1.50;;;;;;;16.91;67.31;98182.75;5066163;28;20060;-70
2023/07/26 05:17:09;;;;;;;2.25;1.45;;;;;;;16.79;67.11;98175.94;5048179;28;20048;-70
2023/07/26 05:19:36;;;;;;;3.70;1.50;;;;;;;16.99;66.86;98201.56;5065736;28;20113;-69
2023/07/26 05:22:05;;;;;;;4.88;1.65;;;;;;;16.97;66.72;98210.72;5065806;28;20308;-70
2023/07/26 05:24:31;;;;;;;2.75;1.80;;;;;;;16.97;67.28;98211.56;5048144;28;20049;-70
2023/07/26 05:26:59;;;;;;;3.38;1.85;;;;;;;17.02;66.99;98220.97;5065655;28;20056;-69
2023/07/26 05:29:26;;;;;;;2.75;1.63;;;;;;;16.98;66.64;98236.50;5065561;28;20049;-70
2023/07/26 05:31:53;;;;;;;3.25;1.60;;;;;;;16.95;67.04;98226.94;5065922;28;20169;-70
2023/07/26 05:34:19;;;;;;;2.45;1.60;;;;;;;17.03;65.94;98223.50;5048068;28;20060;-69
2023/07/26 05:36:46;;;;;;;2.30;1.60;;;;;;;17.06;66.61;98238.41;5065676;28;20052;-70
2023/07/26 05:39:14;;;;;;;3.15;1.80;;;;;;;16.99;66.30;98241.69;5065697;28;20087;-70
2023/07/26 05:41:41;;;;;;;2.60;1.60;;;;;;;17.06;66.35;98239.25;5065246;28;20087;-70
2023/07/26 05:44:07;;;;;;;2.67;1.95;;;;;;;17.04;65.56;98251.13;5065981;28;20248;-70
2023/07/26 05:46:34;;;;;;;5.93;2.53;;;;;;;16.97;65.32;98246.38;5065328;28;20041;-70
2023/07/26 05:49:01;;;;;;;3.53;2.20;;;;;;;17.04;65.88;98248.44;5065316;28;20041;-70
2023/07/26 05:51:28;;;;;;;3.58;1.92;;;;;;;17.00;66.02;98253.25;5065381;28;20201;-69
2023/07/26 05:53:54;;;;;;;2.78;1.98;;;;;;;16.91;65.56;98260.34;5065075;28;20319;-70
2023/07/26 05:56:22;;;;;;;2.90;2.00;;;;;;;17.01;65.04;98273.66;5048479;28;20041;-70
2023/07/26 05:58:49;;;;;;;3.25;2.00;;;;;;;17.02;64.35;98263.81;5065409;28;20056;-70
2023/07/26 06:01:16;;;;;;;2.97;2.03;;;;;;;17.04;64.58;98268.00;5065630;28;20044;-70
2023/07/26 06:03:43;;;;;;;4.22;2.33;;;;;;;16.95;63.88;98293.84;5065508;28;20041;-70
2023/07/26 06:06:10;;;;;;;3.00;1.73;;;;;;;16.88;64.40;98295.44;5065323;28;20116;-70
2023/07/26 06:08:36;;;;;;;3.50;1.80;;;;;;;17.03;63.27;98301.13;5050433;28;20075;-70
2023/07/26 06:11:03;;;;;;;3.20;2.10;;;;;;;17.02;63.11;98306.63;5052298;28;20263;-70
2023/07/26 06:13:31;;;;;;;2.35;1.75;;;;;;;16.70;64.08;98275.84;5068910;28;20319;-70
2023/07/26 06:15:58;;;;;;;2.20;1.55;;;;;;;16.99;63.48;98305.09;5069111;28;20083;-70
2023/07/26 06:18:25;;;;;;;3.90;1.70;;;;;;;16.92;63.28;98307.53;5069080;28;20055;-70
2023/07/26 06:20:52;;;;;;;3.05;1.55;;;;;;;16.94;63.20;98318.94;5068910;28;20041;-70
2023/07/26 06:23:18;;;;;;;3.55;1.75;;;;;;;17.00;63.76;98317.50;5051226;28;20070;-70
2023/07/26 06:25:45;;;;;;;2.38;1.50;;;;;;;16.74;63.88;98276.38;5069493;28;20181;-70
2023/07/26 06:28:12;;;;;;;2.42;1.45;;;;;;;16.94;63.73;98318.94;5068838;28;20052;-70
2023/07/26 06:30:40;;;;;;;4.75;1.80;;;;;;;16.91;63.43;98329.09;5068782;28;20139;-70
2023/07/26 06:33:06;;;;;;;2.10;1.48;;;;;;;16.91;63.35;98329.09;5051199;28;20216;-70
2023/07/26 06:35:33;;;;;;;3.63;1.67;;;;;;;16.84;63.75;98333.34;5051378;28;20052;-69
2023/07/26 06:38:00;;;;;;;4.35;2.25;;;;;;;16.85;63.65;98330.53;5068333;28;20297;-70
2023/07/26 06:40:27;;;;;;;2.97;2.00;;;;;;;16.84;63.89;98326.16;5068730;28;20128;-70
2023/07/26 06:42:53;;;;;;;3.60;2.10;;;;;;;16.51;63.88;98279.41;5050726;28;20056;-70
2023/07/26 06:45:20;;;;;;;3.95;2.13;;;;;;;16.90;63.04;98335.44;5068768;28;20095;-70
2023/07/26 06:47:48;;;;;;;4.53;2.05;;;;;;;16.94;63.03;98340.34;5068557;28;20044;-70
2023/07/26 06:50:15;;;;;;;2.90;1.70;;;;;;;16.94;62.46;98337.66;5068641;28;20175;-70
2023/07/26 06:52:42;;;;;;;9.82;2.10;;;;;;;16.94;62.46;98334.16;5050642;28;20244;-70
2023/07/26 06:55:08;;;;;;;4.57;1.70;;;;;;;16.82;62.94;98338.84;5067889;28;20133;-70
2023/07/26 06:57:35;;;;;;;3.00;1.95;;;;;;;16.95;61.91;98358.09;5067996;28;20048;-69
2023/07/26 07:00:06;;;;;;;3.13;1.75;;;;;;;16.94;62.26;98353.72;5068053;28;20041;-70
2023/07/26 07:02:33;;;;;;;3.00;1.90;;;;;;;16.86;62.37;98361.66;5067764;28;20040;-70
2023/07/26 07:05:01;;;;;;;3.20;2.13;;;;;;;16.67;62.83;98335.81;5068310;28;20060;-70
2023/07/26 07:07:27;;;;;;;2.67;1.70;;;;;;;16.81;63.20;98358.56;5068028;28;20044;-70
2023/07/26 07:09:54;;;;;;;2.67;2.03;;;;;;;16.78;63.55;98363.38;5050068;28;20064;-70
2023/07/26 07:12:21;;;;;;;3.78;1.90;;;;;;;16.87;63.31;98367.84;5068044;28;20057;-70
2023/07/26 07:14:47;;;;;;;2.70;1.92;;;;;;;16.80;63.40;98366.75;5067840;28;20236;-70
2023/07/26 07:17:14;;;;;;;2.90;1.73;;;;;;;16.74;63.83;98370.84;5068456;28;20173;-69
2023/07/26 07:19:41;;;;;;;2.83;1.70;;;;;;;16.79;63.42;98381.97;5049669;28;20037;-70
2023/07/26 07:22:09;;;;;;;4.25;2.10;;;;;;;16.85;63.24;98384.06;5067500;28;20045;-69
2023/07/26 07:24:36;;;;;;;11.07;2.15;;;;;;;16.67;62.53;98372.44;5067448;28;20083;-70
2023/07/26 07:27:03;;;;;;;3.50;1.70;;;;;;;16.85;62.62;98386.72;5067672;28;20052;-70
2023/07/26 07:29:30;;;;;;;4.15;2.05;;;;;;;16.89;62.34;98400.66;5067886;28;20044;-70
2023/07/26 07:31:57;;;;;;;3.67;1.70;;;;;;;16.91;62.61;98396.00;5067367;28;20086;-70
2023/07/26 07:34:24;;;;;;;2.72;1.90;;;;;;;16.94;62.19;98382.31;5068007;28;20094;-70
2023/07/26 07:36:50;;;;;;;5.95;2.10;;;;;;;16.97;62.12;98392.72;5067462;28;20041;-70
2023/07/26 07:39:18;;;;;;;3.65;2.20;;;;;;;16.91;61.67;98367.41;5049787;28;20047;-70
2023/07/26 07:41:45;;;;;;;3.30;2.05;;;;;;;17.00;61.59;98395.94;5049542;28;20044;-70
2023/07/26 07:44:12;;;;;;;5.72;2.25;;;;;;;16.98;61.79;98405.13;5067576;28;20036;-70
2023/07/26 07:46:39;;;;;;;3.85;2.28;;;;;;;16.92;61.67;98397.69;5067363;28;20083;-70
2023/07/26 07:49:06;;;;;;;5.82;2.25;;;;;;;16.96;60.88;98407.09;5067093;28;20060;-70
2023/07/26 07:51:32;;;;;;;3.47;1.92;;;;;;;16.94;61.32;98396.53;5066779;28;20115;-69
2023/07/26 07:53:59;;;;;;;4.70;2.25;;;;;;;16.94;61.28;98404.56;5067263;28;20098;-70
2023/07/26 07:56:27;;;;;;;5.50;2.40;;;;;;;17.04;61.07;98415.22;5066691;28;20207;-70
2023/07/26 07:58:54;;;;;;;3.17;2.33;;;;;;;17.07;60.66;98400.72;5066888;28;20044;-70
2023/07/26 08:01:21;;;;;;;8.13;2.38;;;;;;;17.07;60.82;98417.63;5066643;28;20350;-70
2023/07/26 08:03:48;;;;;;;6.88;2.40;;;;;;;17.07;60.84;98406.91;5048959;28;20067;-70
2023/07/26 08:06:15;;;;;;;5.18;2.90;;;;;;;17.02;60.25;98405.66;5049092;28;20045;-70
2023/07/26 08:08:42;;;;;;;10.75;3.17;;;;;;;17.00;60.30;98412.00;5049716;28;20197;-70
2023/07/26 08:11:08;;;;;;;6.97;2.72;;;;;;;17.07;60.39;98409.59;5049744;28;20178;-70
2023/07/26 08:13:36;;;;;;;12.98;3.30;;;;;;;17.18;60.10;98419.25;5066859;28;20052;-69
2023/07/26 08:16:04;;;;;;;6.20;2.88;;;;;;;17.21;60.43;98417.16;5066878;28;20173;-69
2023/07/26 08:18:30;;;;;;;10.32;2.95;;;;;;;17.30;59.66;98420.78;5066529;28;20049;-70
2023/07/26 08:20:57;;;;;;;5.60;3.63;;;;;;;17.35;59.31;98423.84;5048688;28;20240;-70
2023/07/26 08:23:26;;;;;;;3.72;2.80;;;;;;;17.47;59.27;98433.34;5066184;28;20049;-69
2023/07/26 08:25:53;;;;;;;5.13;2.88;;;;;;;17.46;58.42;98402.22;5066930;28;20052;-69
2023/07/26 08:28:19;;;;;;;6.63;3.47;;;;;;;17.82;58.42;98429.91;5066460;28;20240;-70
2023/07/26 08:30:47;;;;;;;6.75;3.05;;;;;;;17.92;57.86;98395.81;5066039;28;20087;-70
2023/07/26 08:33:14;;;;;;;5.60;3.13;;;;;;;18.08;57.02;98429.13;5066410;28;20079;-70
2023/07/26 08:35:42;;;;;;;5.47;2.92;;;;;;;18.01;56.80;98426.22;5066612;28;20055;-70
2023/07/26 08:38:09;;;;;;;5.90;3.20;;;;;;;17.93;56.54;98426.16;5066365;28;20051;-70
2023/07/26 08:40:36;;;;;;;4.95;2.80;;;;;;;18.01;56.57;98444.16;5066041;28;20044;-69
2023/07/26 08:43:05;;;;;;;3.33;2.67;;;;;;;18.03;56.24;98436.78;5066321;28;20041;-69
2023/07/26 08:45:33;;;;;;;4.03;2.97;;;;;;;18.08;56.52;98437.19;5065910;28;20052;-70
2023/07/26 08:48:02;;;;;;;4.70;2.92;;;;;;;18.01;55.89;98410.13;5048473;28;20319;-70
2023/07/26 08:50:30;;;;;;;5.90;2.88;;;;;;;18.27;55.89;98437.84;5048350;28;20320;-69
2023/07/26 08:52:57;;;;;;;4.47;2.67;;;;;;;18.43;55.66;98438.97;5065961;28;20044;-69
2023/07/26 08:55:23;;;;;;;4.60;2.60;;;;;;;18.51;55.43;98447.91;5048366;28;20045;-70
2023/07/26 08:57:52;;;;;;;3.63;2.65;;;;;;;18.75;54.61;98433.03;5048337;28;20041;-70
2023/07/26 09:00:19;;;;;;;3.80;2.70;;;;;;;18.75;54.42;98414.22;5065895;28;20045;-71
2023/07/26 09:02:47;;;;;;;4.50;2.88;;;;;;;19.10;53.95;98449.00;5066228;28;20060;-69
2023/07/26 09:05:16;;;;;;;4.82;2.80;;;;;;;19.29;53.55;98439.84;5065873;28;20304;-68
2023/07/26 09:07:43;;;;;;;7.05;2.97;;;;;;;19.30;52.46;98449.56;5048812;28;20047;-68
2023/07/26 09:10:10;;;;;;;4.72;2.75;;;;;;;19.47;52.44;98450.50;5065791;28;20041;-70
2023/07/26 09:12:36;;;;;;;3.40;2.60;;;;;;;19.78;51.63;98456.16;5048764;28;20045;-69
2023/07/26 09:15:05;;;;;;;4.28;2.63;;;;;;;19.85;51.09;98441.06;5065618;28;20040;-70
2023/07/26 09:17:41;;;;;;;6.88;2.80;;;;;;;20.09;51.16;98449.16;5065619;28;20048;-70
2023/07/26 09:20:26;;;;;;;7.10;2.72;;;;;;;19.92;50.82;98450.16;5065738;28;20044;-70
2023/07/26 09:23:00;;;;;;;6.05;2.33;;;;;;;19.76;50.27;98453.63;5047683;28;20087;-70
2023/07/26 09:25:32;;;;;;;5.78;2.47;;;;;;;19.89;50.83;98455.03;5065345;28;20343;-70
2023/07/26 09:27:59;;;;;;;4.15;2.80;;;;;;;20.03;49.90;98460.59;5064926;28;20201;-71
2023/07/26 09:30:26;;;;;;;7.57;2.70;;;;;;;19.86;49.96;98453.50;5065513;28;20087;-71
2023/07/26 09:32:53;;;;;;;5.97;2.97;;;;;;;19.76;49.96;98460.84;5065523;28;20056;-71
2023/07/26 09:35:19;;;;;;;4.95;2.60;;;;;;;20.11;49.60;98449.00;5065786;28;20103;-71
2023/07/26 09:37:47;;;;;;;6.57;2.78;;;;;;;20.38;48.87;98453.25;5047729;28;20045;-71
2023/07/26 09:40:14;;;;;;;6.85;2.88;;;;;;;20.16;49.11;98425.13;5048343;28;20051;-70
2023/07/26 09:42:45;;;;;;;6.25;3.20;;;;;;;20.65;48.98;98458.28;5068383;28;20052;-71
2023/07/26 09:45:18;;;;;;;4.15;2.60;;;;;;;20.39;47.73;98382.28;5069887;28;20040;-71
2023/07/26 09:47:46;;;;;;;6.37;3.37;;;;;;;20.13;47.04;98414.72;5070040;28;20069;-70
2023/07/26 09:50:29;;;;;;;4.78;3.20;;;;;;;20.36;47.90;98452.56;5069517;28;20466;-71
2023/07/26 09:52:57;;;;;;;3.35;2.28;;;;;;;20.40;47.81;98459.31;5049794;28;20278;-71
2023/07/26 09:55:26;;;;;;;7.03;3.05;;;;;;;20.09;48.17;98461.78;5069109;28;20311;-71
2023/07/26 09:57:54;;;;;;;4.45;2.60;;;;;;;19.71;48.02;98402.19;5069371;28;20037;-71
2023/07/26 10:00:23;;;;;;;5.35;2.95;;;;;;;19.46;48.04;98395.09;5051349;28;20243;-70
2023/07/26 10:02:55;;;;;;;4.13;2.72;;;;;;;19.99;47.77;98461.09;5068966;28;20041;-70
2023/07/26 10:05:22;;;;;;;4.00;2.53;;;;;;;20.01;48.15;98456.38;5052077;28;20045;-70
2023/07/26 10:07:50;;;;;;;4.82;3.00;;;;;;;19.57;47.86;98370.59;5052248;28;20048;-69
2023/07/26 10:10:19;;;;;;;4.85;2.40;;;;;;;18.64;47.92;98229.34;5069155;28;20041;-70
2023/07/26 10:12:47;;;;;;;4.68;2.42;;;;;;;19.97;47.48;98455.03;5051279;28;20347;-70
2023/07/26 10:15:14;;;;;;;4.20;2.97;;;;;;;19.77;47.63;98431.09;5069018;28;20125;-69
2023/07/26 10:17:42;;;;;;;3.95;2.72;;;;;;;19.96;47.66;98450.66;5069052;28;20040;-71
2023/07/26 10:20:10;;;;;;;7.18;2.42;;;;;;;20.02;47.48;98450.00;5068895;28;20045;-70
2023/07/26 10:22:41;;;;;;;3.97;2.20;;;;;;;20.01;47.67;98449.16;5051890;28;20040;-71
2023/07/26 10:25:08;;;;;;;6.13;2.58;;;;;;;20.07;47.55;98458.41;5068385;28;20060;-70
2023/07/26 10:27:37;;;;;;;4.85;3.60;;;;;;;20.08;46.69;98458.25;5068735;28;20110;-71
2023/07/26 10:30:05;;;;;;;4.85;2.92;;;;;;;20.21;46.69;98468.50;5068729;28;20297;-71
2023/07/26 10:32:32;;;;;;;4.18;3.03;;;;;;;20.14;46.42;98460.28;5068436;28;20106;-71
2023/07/26 10:35:00;;;;;;;4.03;2.50;;;;;;;19.98;45.95;98460.25;5068350;28;20051;-71
2023/07/26 10:37:32;;;;;;;4.25;2.65;;;;;;;20.16;46.37;98452.88;5068519;28;20185;-70
2023/07/26 10:39:59;;;;;;;3.45;2.45;;;;;;;19.90;45.79;98411.84;5050779;28;20048;-69
2023/07/26 10:42:27;;;;;;;5.20;2.20;;;;;;;20.10;45.32;98467.00;5050702;28;20033;-68
2023/07/26 10:44:58;;;;;;;5.70;3.00;;;;;;;20.18;45.26;98477.75;5068386;28;20049;-71
2023/07/26 10:47:25;;;;;;;4.85;2.30;;;;;;;19.96;46.17;98494.53;5068375;28;20104;-70
2023/07/26 10:49:55;;;;;;;5.03;2.45;;;;;;;18.90;47.68;98391.16;5068072;28;20059;-69
2023/07/26 10:52:21;;;;;;;3.47;2.53;;;;;;;19.73;47.37;98501.50;5068456;28;20044;-69
2023/07/26 10:54:50;;;;;;;3.28;2.00;;;;;;;19.67;47.75;98500.31;5067883;28;20080;-69
2023/07/26 10:57:20;;;;;;;5.25;2.75;;;;;;;19.53;48.23;98499.06;5051220;28;20052;-69
2023/07/26 10:59:51;;;;;;;6.15;2.63;;;;;;;19.68;48.27;98495.78;5068071;28;20098;-69
2023/07/26 11:02:35;;;;;;;3.78;2.22;;;;;;;19.71;48.76;98503.50;5068007;28;20106;-69
2023/07/26 11:05:02;;;;;;;;;;;;;;;19.68;48.18;98495.78;5068894;28;20044;-70
2023/07/26 11:07:50;;;;;;;4.28;2.00;;;;;;;19.71;48.31;98503.50;5067654;28;19995;-69
2023/07/26 11:10:18;;;;;;;8.80;3.10;;;;;;;19.66;49.34;98489.72;5067506;28;20064;-71
2023/07/26 11:12:45;;;;;;;8.82;2.42;;;;;;;19.66;49.69;98495.94;5068104;28;20098;-70
2023/07/26 11:15:12;;;;;;;3.92;2.78;;;;;;;19.67;48.26;98489.56;5050064;28;20040;-69
2023/07/26 11:17:42;;;;;;;3.92;2.10;;;;;;;19.55;48.94;98475.56;5067454;28;20296;-69
2023/07/26 11:20:11;;;;;;;3.20;2.35;;;;;;;19.67;49.24;98505.69;5067464;28;20115;-70
2023/07/26 11:22:37;;;;;;;3.63;2.30;;;;;;;19.60;49.46;98503.81;5067908;28;20041;-70
2023/07/26 11:25:05;;;;;;;3.90;2.78;;;;;;;19.64;49.93;98494.41;5067466;28;20056;-69
2023/07/26 11:27:32;;;;;;;3.20;2.25;;;;;;;19.68;49.46;98496.63;5067477;28;20185;-69
2023/07/26 11:30:02;;;;;;;5.13;2.83;;;;;;;19.65;49.16;98491.56;5067828;28;20055;-70
2023/07/26 11:32:29;;;;;;;3.58;2.58;;;;;;;19.37;49.41;98447.94;5050498;28;20033;-69
2023/07/26 11:34:58;;;;;;;4.13;2.85;;;;;;;19.69;50.51;98494.75;5067615;28;20055;-69